Time;durP1;ratioP1;P1;durP2;ratioP2;P2;SDS_P1;SDS_P2;PMS_P1;PMS_P2;Temp;Humidity;BMP_temperature;BMP_pressure;BME280_temperature;BME280_humidity;BME280_pressure;Samples;Min_cycle;Max_cycle;Signal;HPM_P1;HPM_P2
2022/04/12 00:01:41;;;;;;;7.13;5.20;;;;;;;;;;4992739;28;20404;-48
2022/04/12 00:04:07;;;;;;;6.23;4.70;;;;;;;;;;4992842;28;20408;-48
2022/04/12 00:06:33;;;;;;;7.10;5.47;;;;;;;;;;4992513;28;20819;-48
2022/04/12 00:08:59;;;;;;;7.23;4.90;;;;;;;;;;4992793;28;20871;-49
2022/04/12 00:11:25;;;;;;;5.57;4.20;;;;;;;;;;4991823;28;20448;-49
2022/04/12 00:13:51;;;;;;;6.00;5.13;;;;;;;;;;4992091;28;20452;-48
2022/04/12 00:16:17;;;;;;;7.60;4.93;;;;;;;;;;4992178;28;20803;-48
2022/04/12 00:21:28;;;;;;;6.83;4.93;;;;;;;;;;4992447;28;20828;-48
2022/04/12 00:23:54;;;;;;;7.67;5.00;;;;;;;;;;4992724;28;20880;-50
2022/04/12 00:26:19;;;;;;;7.40;5.00;;;;;;;;;;4992002;28;20499;-49
2022/04/12 00:28:45;;;;;;;5.80;4.93;;;;;;;;;;4992341;28;20392;-48
2022/04/12 00:31:11;;;;;;;8.83;6.20;;;;;;;;;;4992602;28;20396;-48
2022/04/12 00:33:37;;;;;;;9.30;5.30;;;;;;;;;;4992240;28;20423;-48
2022/04/12 00:36:04;;;;;;;8.47;4.63;;;;;;;;;;4992155;28;20439;-47
2022/04/12 00:38:33;;;;;;;5.70;4.97;;;;;;;;;;4992187;28;20428;-48
2022/04/12 00:41:00;;;;;;;6.83;6.10;;;;;;;;;;4992032;28;20469;-49
2022/04/12 00:43:27;;;;;;;6.00;5.50;;;;;;;;;;4991821;28;20786;-48
2022/04/12 00:45:53;;;;;;;9.70;5.20;;;;;;;;;;4972748;28;20512;-50
2022/04/12 00:48:18;;;;;;;5.80;5.20;;;;;;;;;;4979020;28;20543;-50
2022/04/12 00:50:46;;;;;;;6.97;5.27;;;;;;;;;;4992068;28;20403;-48
2022/04/12 00:53:13;;;;;;;7.00;5.37;;;;;;;;;;4991961;28;20415;-48
2022/04/12 00:55:39;;;;;;;7.10;4.87;;;;;;;;;;4991988;28;20818;-47
2022/04/12 00:58:07;;;;;;;9.23;6.00;;;;;;;;;;4991951;28;20400;-48
2022/04/12 01:00:36;;;;;;;4.93;4.33;;;;;;;;;;4992317;28;20426;-48
2022/04/12 01:03:02;;;;;;;9.03;4.37;;;;;;;;;;4991262;28;20491;-49
2022/04/12 01:05:28;;;;;;;17.80;6.90;;;;;;;;;;4991501;28;20431;-49
2022/04/12 01:07:55;;;;;;;8.37;4.67;;;;;;;;;;4991804;28;20486;-48
2022/04/12 01:10:22;;;;;;;6.03;4.13;;;;;;;;;;4992203;28;20487;-47
2022/04/12 01:12:50;;;;;;;5.20;4.70;;;;;;;;;;4991935;28;20411;-49
2022/04/12 01:15:20;;;;;;;7.50;4.93;;;;;;;;;;4991822;28;20451;-48
2022/04/12 01:17:47;;;;;;;5.70;4.27;;;;;;;;;;4992029;28;20412;-48
2022/04/12 01:20:14;;;;;;;6.97;4.30;;;;;;;;;;4991905;28;20404;-47
2022/04/12 01:22:44;;;;;;;6.83;4.53;;;;;;;;;;4992043;28;20410;-48
2022/04/12 01:25:10;;;;;;;6.47;5.10;;;;;;;;;;4991982;28;20424;-48
2022/04/12 01:27:37;;;;;;;5.80;5.13;;;;;;;;;;4991949;28;20420;-48
2022/04/12 01:30:03;;;;;;;7.07;5.83;;;;;;;;;;4991998;28;20747;-48
2022/04/12 01:32:29;;;;;;;8.20;5.40;;;;;;;;;;4991982;28;20915;-48
2022/04/12 01:34:55;;;;;;;6.03;4.70;;;;;;;;;;4991442;28;20486;-48
2022/04/12 01:37:21;;;;;;;5.73;5.10;;;;;;;;;;4991861;28;20919;-48
2022/04/12 01:39:47;;;;;;;6.80;4.90;;;;;;;;;;4994998;28;20492;-47
2022/04/12 01:42:13;;;;;;;5.20;4.70;;;;;;;;;;4995393;28;20400;-48
2022/04/12 01:44:39;;;;;;;7.70;5.80;;;;;;;;;;4995071;28;20495;-48
2022/04/12 01:47:05;;;;;;;4.27;3.70;;;;;;;;;;4995349;28;20419;-47
2022/04/12 01:49:31;;;;;;;5.40;4.50;;;;;;;;;;4995069;28;20479;-48
2022/04/12 01:52:00;;;;;;;6.30;4.90;;;;;;;;;;4995294;28;20797;-49
2022/04/12 01:54:26;;;;;;;6.00;4.43;;;;;;;;;;4995012;28;20940;-47
2022/04/12 01:56:53;;;;;;;5.40;4.77;;;;;;;;;;4995092;28;20442;-47
2022/04/12 01:59:19;;;;;;;4.70;4.20;;;;;;;;;;4995151;28;20476;-48
2022/04/12 02:01:45;;;;;;;5.33;4.83;;;;;;;;;;4994969;28;20396;-47
2022/04/12 02:04:11;;;;;;;5.07;4.43;;;;;;;;;;4994869;28;20815;-47
2022/04/12 02:06:37;;;;;;;5.07;4.43;;;;;;;;;;4994640;28;20467;-48
2022/04/12 02:09:03;;;;;;;6.30;4.67;;;;;;;;;;4995015;28;20408;-47
2022/04/12 02:11:29;;;;;;;6.73;5.57;;;;;;;;;;4994746;28;20466;-48
2022/04/12 02:13:55;;;;;;;5.70;5.10;;;;;;;;;;4994780;28;20542;-49
2022/04/12 02:16:23;;;;;;;5.13;4.43;;;;;;;;;;4994567;28;20427;-50
2022/04/12 02:18:48;;;;;;;5.67;4.70;;;;;;;;;;4994748;28;20403;-47
2022/04/12 02:21:15;;;;;;;6.67;5.10;;;;;;;;;;4994636;28;20396;-48
2022/04/12 02:23:40;;;;;;;13.00;6.00;;;;;;;;;;4994679;28;20887;-48
2022/04/12 02:26:06;;;;;;;8.13;4.30;;;;;;;;;;4994235;28;20412;-49
2022/04/12 02:28:32;;;;;;;5.77;4.77;;;;;;;;;;4994523;28;20895;-48
2022/04/12 02:30:58;;;;;;;6.03;4.83;;;;;;;;;;4994543;28;20915;-49
2022/04/12 02:33:24;;;;;;;7.90;5.23;;;;;;;;;;4994518;28;20926;-49
2022/04/12 02:35:50;;;;;;;7.73;4.47;;;;;;;;;;4994100;28;20995;-47
2022/04/12 02:38:16;;;;;;;5.40;4.70;;;;;;;;;;4994235;28;20423;-47
2022/04/12 02:40:42;;;;;;;5.80;4.47;;;;;;;;;;4994171;28;20404;-48
2022/04/12 02:43:08;;;;;;;8.00;4.67;;;;;;;;;;4994227;28;20761;-48
2022/04/12 02:45:34;;;;;;;5.13;4.63;;;;;;;;;;4993993;28;20428;-48
2022/04/12 02:48:00;;;;;;;8.37;4.17;;;;;;;;;;4994147;28;20494;-48
2022/04/12 02:50:27;;;;;;;11.13;5.43;;;;;;;;;;4993207;28;20415;-47
2022/04/12 02:52:54;;;;;;;7.30;4.90;;;;;;;;;;4993959;28;20928;-48
2022/04/12 02:55:20;;;;;;;5.57;5.00;;;;;;;;;;4993641;28;20460;-48
2022/04/12 02:57:46;;;;;;;8.40;5.17;;;;;;;;;;4994051;28;20995;-49
2022/04/12 03:00:12;;;;;;;5.67;4.40;;;;;;;;;;4993232;28;20423;-48
2022/04/12 03:02:38;;;;;;;8.40;4.80;;;;;;;;;;4992892;28;20408;-47
2022/04/12 03:05:04;;;;;;;6.27;4.50;;;;;;;;;;4992339;28;20478;-48
2022/04/12 03:07:31;;;;;;;12.20;4.73;;;;;;;;;;4993757;28;20802;-47
2022/04/12 03:09:57;;;;;;;8.00;4.90;;;;;;;;;;4993697;28;20795;-49
2022/04/12 03:12:23;;;;;;;7.10;4.90;;;;;;;;;;4993923;28;20419;-48
2022/04/12 03:14:48;;;;;;;6.10;5.13;;;;;;;;;;4993365;28;20464;-47
2022/04/12 03:17:14;;;;;;;10.50;6.23;;;;;;;;;;4993417;28;20853;-48
2022/04/12 03:19:40;;;;;;;11.13;6.80;;;;;;;;;;4993530;28;20412;-47
2022/04/12 03:22:07;;;;;;;9.20;6.33;;;;;;;;;;4993626;28;20432;-48
2022/04/12 03:24:33;;;;;;;6.33;5.60;;;;;;;;;;4993201;28;20396;-47
2022/04/12 03:26:59;;;;;;;6.43;5.40;;;;;;;;;;4993653;28;20459;-48
2022/04/12 03:29:27;;;;;;;4.93;4.43;;;;;;;;;;4993417;28;20412;-48
2022/04/12 03:31:53;;;;;;;7.27;4.27;;;;;;;;;;4993400;28;20435;-49
2022/04/12 03:34:19;;;;;;;6.50;4.53;;;;;;;;;;4992912;28;20963;-48
2022/04/12 03:36:46;;;;;;;5.23;4.30;;;;;;;;;;4993281;28;20420;-48
2022/04/12 03:39:17;;;;;;;6.47;4.63;;;;;;;;;;4993247;28;20417;-47
2022/04/12 03:41:44;;;;;;;5.33;4.07;;;;;;;;;;4993230;28;20436;-48
2022/04/12 03:44:10;;;;;;;4.30;3.90;;;;;;;;;;4993250;28;20404;-48
2022/04/12 03:46:36;;;;;;;5.00;4.50;;;;;;;;;;4992885;28;20451;-50
2022/04/12 03:49:02;;;;;;;9.13;4.30;;;;;;;;;;4993108;28;20405;-49
2022/04/12 03:51:28;;;;;;;11.43;4.00;;;;;;;;;;4993059;28;20408;-49
2022/04/12 03:53:54;;;;;;;6.87;4.20;;;;;;;;;;4992878;28;20452;-48
2022/04/12 03:56:20;;;;;;;4.47;4.07;;;;;;;;;;4992748;28;20456;-48
2022/04/12 03:58:46;;;;;;;6.83;4.17;;;;;;;;;;4993012;28;20401;-48
2022/04/12 04:01:12;;;;;;;8.90;3.97;;;;;;;;;;4993117;28;20793;-48
2022/04/12 04:03:38;;;;;;;5.60;3.67;;;;;;;;;;4992750;28;20401;-48
2022/04/12 04:06:05;;;;;;;4.70;4.20;;;;;;;;;;4992785;28;20426;-48
2022/04/12 04:08:33;;;;;;;4.17;3.43;;;;;;;;;;4992858;28;20397;-50
2022/04/12 04:10:59;;;;;;;5.17;4.23;;;;;;;;;;4992754;28;20405;-48
2022/04/12 04:13:26;;;;;;;6.80;4.90;;;;;;;;;;4992773;28;20921;-49
2022/04/12 04:15:53;;;;;;;7.57;4.60;;;;;;;;;;4991790;28;20890;-49
2022/04/12 04:18:21;;;;;;;4.53;4.10;;;;;;;;;;4992911;28;20407;-47
2022/04/12 04:20:47;;;;;;;5.90;4.60;;;;;;;;;;4992564;28;20426;-48
2022/04/12 04:23:12;;;;;;;13.30;4.80;;;;;;;;;;4992641;28;20411;-48
2022/04/12 04:25:39;;;;;;;7.60;5.03;;;;;;;;;;4992289;28;20432;-49
2022/04/12 04:28:10;;;;;;;7.53;4.23;;;;;;;;;;4992519;28;20791;-50
2022/04/12 04:30:37;;;;;;;10.47;4.60;;;;;;;;;;4992625;28;20408;-48
2022/04/12 04:33:03;;;;;;;8.20;4.40;;;;;;;;;;4992381;28;20404;-48
2022/04/12 04:35:28;;;;;;;9.60;5.10;;;;;;;;;;4992217;28;20974;-48
2022/04/12 04:37:54;;;;;;;11.20;4.37;;;;;;;;;;4992301;28;20419;-48
2022/04/12 04:40:21;;;;;;;6.20;3.97;;;;;;;;;;4992412;28;20404;-48
2022/04/12 04:42:51;;;;;;;4.60;3.93;;;;;;;;;;4992264;28;20400;-48
2022/04/12 04:45:17;;;;;;;5.50;3.87;;;;;;;;;;4992195;28;20434;-48
2022/04/12 04:47:53;;;;;;;6.70;4.00;;;;;;;;;;4992323;28;20463;-48
2022/04/12 04:50:20;;;;;;;7.60;3.60;;;;;;;;;;4992411;28;20392;-48
2022/04/12 04:52:46;;;;;;;4.40;3.80;;;;;;;;;;4992166;28;20404;-48
2022/04/12 04:55:13;;;;;;;6.43;4.17;;;;;;;;;;4991952;28;20501;-50
2022/04/12 04:57:42;;;;;;;5.93;3.90;;;;;;;;;;4992261;28;20927;-49
2022/04/12 05:00:15;;;;;;;4.87;3.60;;;;;;;;;;4992312;28;20392;-48
2022/04/12 05:02:41;;;;;;;6.23;4.50;;;;;;;;;;4992201;28;20408;-47
2022/04/12 05:05:07;;;;;;;4.03;3.63;;;;;;;;;;4992262;28;20793;-49
2022/04/12 05:07:33;;;;;;;5.30;3.63;;;;;;;;;;4992113;28;20464;-49
2022/04/12 05:09:59;;;;;;;4.67;3.70;;;;;;;;;;4992138;28;20424;-47
2022/04/12 05:12:25;;;;;;;5.03;3.90;;;;;;;;;;4992236;28;20443;-48
2022/04/12 05:14:54;;;;;;;8.57;3.77;;;;;;;;;;4995316;28;20452;-48
2022/04/12 05:17:24;;;;;;;4.80;3.80;;;;;;;;;;4995534;28;20811;-48
2022/04/12 05:19:51;;;;;;;6.97;3.60;;;;;;;;;;4995887;28;20402;-48
2022/04/12 05:22:18;;;;;;;4.20;3.87;;;;;;;;;;4995754;28;20483;-49
2022/04/12 05:24:45;;;;;;;4.13;3.63;;;;;;;;;;4995799;28;20432;-47
2022/04/12 05:27:11;;;;;;;4.90;3.70;;;;;;;;;;4995850;28;20405;-48
2022/04/12 05:29:37;;;;;;;4.37;3.67;;;;;;;;;;4995767;28;20404;-47
2022/04/12 05:32:05;;;;;;;4.77;4.00;;;;;;;;;;4995605;28;20423;-48
2022/04/12 05:34:31;;;;;;;5.20;3.40;;;;;;;;;;4995208;28;20534;-48
2022/04/12 05:36:57;;;;;;;5.40;3.67;;;;;;;;;;4995350;28;20532;-47
2022/04/12 05:39:24;;;;;;;4.40;3.50;;;;;;;;;;4995060;28;20880;-49
2022/04/12 05:41:50;;;;;;;4.00;3.57;;;;;;;;;;4994880;28;20896;-50
2022/04/12 05:44:16;;;;;;;3.90;3.50;;;;;;;;;;4994693;28;20415;-49
2022/04/12 05:46:42;;;;;;;3.27;2.97;;;;;;;;;;4994697;28;20454;-47
2022/04/12 05:49:08;;;;;;;6.07;3.70;;;;;;;;;;4994848;28;20408;-48
2022/04/12 05:51:34;;;;;;;11.63;4.47;;;;;;;;;;4994843;28;20444;-48
2022/04/12 05:54:00;;;;;;;6.13;5.13;;;;;;;;;;4994485;28;20455;-48
2022/04/12 05:56:27;;;;;;;8.10;6.13;;;;;;;;;;4996057;28;20488;-48
2022/04/12 05:58:53;;;;;;;5.03;4.30;;;;;;;;;;4995092;28;20481;-49
2022/04/12 06:01:19;;;;;;;6.50;5.70;;;;;;;;;;4995101;28;20409;-47
2022/04/12 06:03:45;;;;;;;8.63;4.10;;;;;;;;;;4994963;28;20419;-48
2022/04/12 06:06:15;;;;;;;4.20;3.80;;;;;;;;;;4994718;28;20496;-47
2022/04/12 06:08:41;;;;;;;3.60;3.30;;;;;;;;;;4995022;28;20896;-48
2022/04/12 06:11:07;;;;;;;7.03;4.40;;;;;;;;;;4994990;28;20402;-48
2022/04/12 06:13:33;;;;;;;3.90;3.50;;;;;;;;;;4994954;28;20397;-47
2022/04/12 06:15:59;;;;;;;7.63;3.00;;;;;;;;;;4994436;28;20493;-48
2022/04/12 06:18:25;;;;;;;3.73;2.90;;;;;;;;;;4994859;28;20449;-48
2022/04/12 06:20:52;;;;;;;3.97;3.60;;;;;;;;;;4994645;28;20445;-50
2022/04/12 06:23:18;;;;;;;5.87;3.80;;;;;;;;;;4994776;28;20397;-47
2022/04/12 06:25:44;;;;;;;8.40;3.67;;;;;;;;;;4994314;28;20485;-48
2022/04/12 06:28:10;;;;;;;3.67;3.37;;;;;;;;;;4994650;28;20405;-48
2022/04/12 06:30:36;;;;;;;6.87;4.07;;;;;;;;;;4994475;28;20417;-47
2022/04/12 06:33:08;;;;;;;4.43;3.33;;;;;;;;;;4994649;28;20446;-48
2022/04/12 06:35:34;;;;;;;5.43;4.03;;;;;;;;;;4994106;28;20456;-47
2022/04/12 06:38:02;;;;;;;5.73;3.70;;;;;;;;;;4994693;28;20406;-47
2022/04/12 06:40:29;;;;;;;5.60;3.87;;;;;;;;;;4994324;28;20889;-48
2022/04/12 06:42:55;;;;;;;4.53;4.10;;;;;;;;;;4994341;28;20401;-48
2022/04/12 06:45:22;;;;;;;4.53;4.07;;;;;;;;;;4993996;28;20426;-48
2022/04/12 06:47:54;;;;;;;6.60;4.20;;;;;;;;;;4994334;28;20413;-47
2022/04/12 06:50:22;;;;;;;4.30;3.90;;;;;;;;;;4994205;28;20404;-48
2022/04/12 06:52:51;;;;;;;6.00;4.27;;;;;;;;;;4994215;28;20402;-47
2022/04/12 06:55:17;;;;;;;5.07;4.10;;;;;;;;;;4993665;28;21035;-47
2022/04/12 06:57:43;;;;;;;5.87;4.73;;;;;;;;;;4994198;28;20406;-48
2022/04/12 07:00:11;;;;;;;6.10;5.27;;;;;;;;;;4994127;28;20399;-47
2022/04/12 07:02:38;;;;;;;7.43;5.50;;;;;;;;;;4994049;28;20407;-48
2022/04/12 07:05:05;;;;;;;8.90;5.53;;;;;;;;;;4993668;28;20452;-48
2022/04/12 07:07:32;;;;;;;10.73;5.50;;;;;;;;;;4993918;28;20386;-47
2022/04/12 07:09:58;;;;;;;5.13;4.23;;;;;;;;;;4993853;28;20502;-50
2022/04/12 07:12:24;;;;;;;3.93;3.60;;;;;;;;;;4993737;28;20868;-49
2022/04/12 07:14:50;;;;;;;6.90;3.77;;;;;;;;;;4993281;28;20961;-48
2022/04/12 07:17:47;;;;;;;7.10;4.20;;;;;;;;;;4993273;28;20384;-48
2022/04/12 07:20:13;;;;;;;5.13;3.30;;;;;;;;;;4993706;28;20398;-49
2022/04/12 07:22:40;;;;;;;4.70;4.30;;;;;;;;;;4993580;28;20544;-49
2022/04/12 07:25:06;;;;;;;4.80;4.10;;;;;;;;;;4993416;28;20444;-49
2022/04/12 07:27:33;;;;;;;6.60;3.47;;;;;;;;;;4993551;28;20408;-48
2022/04/12 07:29:59;;;;;;;4.60;3.37;;;;;;;;;;4993951;28;20425;-49
2022/04/12 07:32:26;;;;;;;8.63;3.90;;;;;;;;;;4993322;28;20409;-48
2022/04/12 07:34:52;;;;;;;5.50;3.53;;;;;;;;;;4993119;28;20466;-48
2022/04/12 07:37:18;;;;;;;12.93;3.50;;;;;;;;;;4992685;28;20782;-49
2022/04/12 07:39:44;;;;;;;8.80;4.50;;;;;;;;;;4993506;28;20404;-48
2022/04/12 07:42:10;;;;;;;4.07;3.60;;;;;;;;;;4993206;28;20455;-48
2022/04/12 07:44:36;;;;;;;3.80;3.27;;;;;;;;;;4993016;28;20803;-49
2022/04/12 07:47:02;;;;;;;3.93;3.50;;;;;;;;;;4993221;28;20408;-48
2022/04/12 07:49:28;;;;;;;4.30;3.50;;;;;;;;;;4993354;28;20834;-49
2022/04/12 07:51:54;;;;;;;5.23;3.30;;;;;;;;;;4993042;28;20498;-50
2022/04/12 07:54:20;;;;;;;6.20;3.07;;;;;;;;;;4992805;28;20554;-49
2022/04/12 07:56:46;;;;;;;3.67;3.03;;;;;;;;;;4992905;28;20424;-50
2022/04/12 07:59:12;;;;;;;5.30;3.13;;;;;;;;;;4993017;28;20406;-48
2022/04/12 08:01:38;;;;;;;2.63;2.30;;;;;;;;;;4992972;28;20835;-49
2022/04/12 08:04:04;;;;;;;2.70;2.40;;;;;;;;;;4986913;28;20514;-50
2022/04/12 08:06:30;;;;;;;4.17;2.80;;;;;;;;;;4992396;28;20781;-51
2022/04/12 08:08:56;;;;;;;4.80;2.50;;;;;;;;;;4991784;28;20901;-49
2022/04/12 08:11:22;;;;;;;3.40;2.57;;;;;;;;;;5005914;28;20466;-49
2022/04/12 08:13:48;;;;;;;2.50;1.90;;;;;;;;;;4998513;28;20427;-49
2022/04/12 08:16:17;;;;;;;2.80;2.30;;;;;;;;;;4991615;28;20440;-49
2022/04/12 08:18:44;;;;;;;3.73;2.47;;;;;;;;;;5006326;28;20454;-50
2022/04/12 08:21:10;;;;;;;3.17;2.40;;;;;;;;;;5000342;28;20474;-49
2022/04/12 08:23:36;;;;;;;2.70;2.50;;;;;;;;;;4992579;28;20923;-51
2022/04/12 08:26:02;;;;;;;3.40;2.00;;;;;;;;;;4995838;28;20450;-48
2022/04/12 08:28:27;;;;;;;2.47;2.03;;;;;;;;;;5012069;28;20415;-48
2022/04/12 08:30:53;;;;;;;3.03;2.20;;;;;;;;;;5003193;28;20422;-48
2022/04/12 08:33:19;;;;;;;3.30;2.10;;;;;;;;;;4991942;28;21009;-49
2022/04/12 08:35:45;;;;;;;2.20;1.90;;;;;;;;;;4992178;28;20827;-49
2022/04/12 08:38:11;;;;;;;4.00;1.90;;;;;;;;;;4992343;28;20427;-49
2022/04/12 08:40:37;;;;;;;1.90;1.80;;;;;;;;;;4992454;28;20786;-48
2022/04/12 08:43:03;;;;;;;4.50;1.93;;;;;;;;;;4995721;28;20415;-51
2022/04/12 08:45:30;;;;;;;3.43;2.10;;;;;;;;;;5011916;28;20465;-51
2022/04/12 08:47:56;;;;;;;1.90;1.70;;;;;;;;;;5012499;28;20438;-50
2022/04/12 08:50:23;;;;;;;2.07;1.97;;;;;;;;;;5003081;28;20412;-49
2022/04/12 08:52:49;;;;;;;2.60;2.40;;;;;;;;;;4996426;28;20404;-49
2022/04/12 08:55:15;;;;;;;1.97;1.80;;;;;;;;;;4995906;28;20810;-49
2022/04/12 08:57:41;;;;;;;4.53;2.30;;;;;;;;;;4996334;28;20407;-49
2022/04/12 09:00:07;;;;;;;3.33;1.90;;;;;;;;;;4995366;28;20408;-50
2022/04/12 09:02:33;;;;;;;4.33;2.30;;;;;;;;;;4994559;28;20466;-50
2022/04/12 09:04:59;;;;;;;4.77;2.53;;;;;;;;;;4995658;28;20455;-50
2022/04/12 09:07:26;;;;;;;3.07;2.17;;;;;;;;;;4994480;28;20995;-49
2022/04/12 09:09:52;;;;;;;2.10;2.00;;;;;;;;;;4995235;28;20431;-50
2022/04/12 09:12:19;;;;;;;6.90;2.20;;;;;;;;;;4995549;28;20428;-49
2022/04/12 09:14:48;;;;;;;5.00;2.20;;;;;;;;;;4994355;28;20459;-49
2022/04/12 09:17:15;;;;;;;4.03;2.10;;;;;;;;;;4999795;28;20437;-50
2022/04/12 09:19:45;;;;;;;2.40;2.20;;;;;;;;;;4996561;28;20422;-49
2022/04/12 09:22:12;;;;;;;3.00;1.90;;;;;;;;;;4995840;28;20800;-49
2022/04/12 09:24:43;;;;;;;3.20;2.27;;;;;;;;;;4995489;28;20423;-49
2022/04/12 09:27:12;;;;;;;2.70;2.50;;;;;;;;;;4995836;28;20458;-49
2022/04/12 09:29:43;;;;;;;4.60;2.30;;;;;;;;;;4995782;28;20408;-49
2022/04/12 09:32:13;;;;;;;2.90;2.70;;;;;;;;;;5011576;28;20513;-49
2022/04/12 09:34:39;;;;;;;4.50;2.20;;;;;;;;;;5014944;28;20466;-49
2022/04/12 09:37:15;;;;;;;3.20;2.10;;;;;;;;;;5003320;28;20436;-49
2022/04/12 09:39:41;;;;;;;2.30;2.10;;;;;;;;;;4995729;28;20403;-50
2022/04/12 09:42:07;;;;;;;1.77;1.67;;;;;;;;;;4995609;28;20404;-50
2022/04/12 09:44:33;;;;;;;6.20;2.43;;;;;;;;;;4995164;28;20400;-50
2022/04/12 09:47:01;;;;;;;4.40;2.23;;;;;;;;;;4994336;28;20891;-49
2022/04/12 09:49:41;;;;;;;3.00;1.80;;;;;;;;;;4995294;28;20415;-49
2022/04/12 09:52:11;;;;;;;2.50;1.53;;;;;;;;;;4995352;28;20407;-49
2022/04/12 09:54:37;;;;;;;4.70;2.10;;;;;;;;;;4994898;28;20460;-51
2022/04/12 09:57:04;;;;;;;2.70;2.10;;;;;;;;;;4995165;28;20462;-52
2022/04/12 09:59:36;;;;;;;4.30;1.93;;;;;;;;;;4994714;28;20812;-49
2022/04/12 10:02:02;;;;;;;3.30;2.03;;;;;;;;;;4995285;28;20440;-49
2022/04/12 10:04:29;;;;;;;3.53;1.83;;;;;;;;;;4994675;28;20434;-49
2022/04/12 10:06:56;;;;;;;3.10;1.83;;;;;;;;;;4995296;28;20404;-49
2022/04/12 10:09:22;;;;;;;2.93;2.13;;;;;;;;;;4995094;28;20416;-49
2022/04/12 10:11:48;;;;;;;6.00;1.80;;;;;;;;;;4994869;28;20419;-49
2022/04/12 10:14:15;;;;;;;2.47;1.70;;;;;;;;;;4994669;28;20471;-53
2022/04/12 10:16:41;;;;;;;1.63;1.50;;;;;;;;;;4994831;28;20431;-49
2022/04/12 10:19:08;;;;;;;1.90;1.80;;;;;;;;;;4996243;28;20400;-49
2022/04/12 10:21:35;;;;;;;3.00;1.93;;;;;;;;;;4994721;28;20781;-49
2022/04/12 10:24:02;;;;;;;3.67;1.60;;;;;;;;;;4994559;28;20451;-51
2022/04/12 10:26:29;;;;;;;3.80;2.07;;;;;;;;;;4993916;28;20442;-50
2022/04/12 10:29:00;;;;;;;1.80;1.70;;;;;;;;;;4993902;28;20439;-51
2022/04/12 10:31:30;;;;;;;1.57;1.47;;;;;;;;;;4994358;28;20919;-51
2022/04/12 10:34:04;;;;;;;4.47;2.10;;;;;;;;;;4994479;28;20771;-50
2022/04/12 10:36:48;;;;;;;1.90;1.80;;;;;;;;;;4991447;28;20507;-50
2022/04/12 10:39:15;;;;;;;4.27;1.70;;;;;;;;;;4994488;28;20419;-50
2022/04/12 10:41:42;;;;;;;2.20;1.37;;;;;;;;;;4994372;28;20396;-50
2022/04/12 10:44:19;;;;;;;2.40;1.80;;;;;;;;;;4994345;28;20462;-51
2022/04/12 10:46:47;;;;;;;3.37;2.00;;;;;;;;;;4994237;28;20412;-50
2022/04/12 10:49:13;;;;;;;2.37;1.93;;;;;;;;;;4994373;28;20404;-51
2022/04/12 10:51:40;;;;;;;1.53;1.43;;;;;;;;;;4994261;28;20954;-51
2022/04/12 10:54:06;;;;;;;3.00;1.87;;;;;;;;;;4994232;28;20458;-50
2022/04/12 10:56:32;;;;;;;1.53;1.43;;;;;;;;;;4993919;28;20420;-49
2022/04/12 10:58:58;;;;;;;5.60;1.60;;;;;;;;;;4993972;28;20420;-49
2022/04/12 11:01:28;;;;;;;3.67;1.83;;;;;;;;;;4993808;28;20428;-50
2022/04/12 11:03:55;;;;;;;1.93;1.73;;;;;;;;;;4993812;28;20550;-50
2022/04/12 11:06:21;;;;;;;3.13;1.57;;;;;;;;;;4993391;28;20943;-48
2022/04/12 11:08:49;;;;;;;2.00;1.60;;;;;;;;;;4993332;28;20478;-49
2022/04/12 11:11:19;;;;;;;2.23;1.57;;;;;;;;;;4993030;28;20410;-50
2022/04/12 11:13:45;;;;;;;4.23;2.00;;;;;;;;;;4993025;28;20465;-49
2022/04/12 11:16:12;;;;;;;1.97;1.50;;;;;;;;;;4993529;28;20467;-49
2022/04/12 11:18:51;;;;;;;4.10;1.60;;;;;;;;;;4993916;28;20447;-50
2022/04/12 11:21:21;;;;;;;1.90;1.63;;;;;;;;;;4993372;28;20786;-50
2022/04/12 11:24:04;;;;;;;3.77;1.60;;;;;;;;;;4992913;28;20422;-50
2022/04/12 11:26:36;;;;;;;1.73;1.47;;;;;;;;;;4993201;28;20475;-50
2022/04/12 11:29:03;;;;;;;3.90;2.30;;;;;;;;;;4992131;28;20783;-49
2022/04/12 11:31:29;;;;;;;2.03;1.27;;;;;;;;;;4992819;28;20420;-49
2022/04/12 11:33:57;;;;;;;2.57;1.23;;;;;;;;;;4992718;28;20874;-50
2022/04/12 11:36:24;;;;;;;2.50;1.50;;;;;;;;;;4993163;28;20435;-51
2022/04/12 11:38:50;;;;;;;5.47;1.80;;;;;;;;;;4993209;28;20798;-48
2022/04/12 11:41:16;;;;;;;1.27;1.17;;;;;;;;;;4993546;28;20431;-49
2022/04/12 11:43:42;;;;;;;2.50;1.53;;;;;;;;;;4992371;28;20514;-50
2022/04/12 11:46:08;;;;;;;1.80;1.20;;;;;;;;;;4992923;28;20852;-50
2022/04/12 11:48:34;;;;;;;2.23;1.43;;;;;;;;;;4992862;28;20503;-50
2022/04/12 11:51:04;;;;;;;2.03;1.43;;;;;;;;;;4989608;28;20423;-50
2022/04/12 11:53:31;;;;;;;2.27;1.37;;;;;;;;;;4991947;28;20420;-50
2022/04/12 11:56:01;;;;;;;3.67;1.80;;;;;;;;;;4992481;28;20471;-50
2022/04/12 11:58:29;;;;;;;1.57;1.47;;;;;;;;;;4993140;28;20430;-48
2022/04/12 12:00:55;;;;;;;2.93;1.67;;;;;;;;;;4995529;28;20422;-51
2022/04/12 12:03:21;;;;;;;1.67;1.40;;;;;;;;;;4993881;28;20424;-49
2022/04/12 12:05:47;;;;;;;3.43;1.40;;;;;;;;;;5006336;28;20461;-49
2022/04/12 12:08:13;;;;;;;2.30;1.40;;;;;;;;;;5000536;28;20408;-51
2022/04/12 12:10:39;;;;;;;2.70;1.20;;;;;;;;;;4992857;28;20442;-48
2022/04/12 12:13:06;;;;;;;2.00;1.20;;;;;;;;;;4992687;28;20400;-49
2022/04/12 12:15:33;;;;;;;1.70;1.30;;;;;;;;;;4992271;28;21021;-48
2022/04/12 12:18:00;;;;;;;1.43;1.33;;;;;;;;;;5002661;28;20408;-48
2022/04/12 12:20:30;;;;;;;3.27;1.33;;;;;;;;;;4999941;28;20951;-49
2022/04/12 12:23:00;;;;;;;1.60;1.43;;;;;;;;;;4992504;28;20404;-48
2022/04/12 12:25:43;;;;;;;3.30;1.50;;;;;;;;;;4992275;28;20446;-50
2022/04/12 12:28:15;;;;;;;3.10;1.50;;;;;;;;;;4992486;28;20408;-48
2022/04/12 12:30:43;;;;;;;2.20;1.40;;;;;;;;;;4992556;28;20411;-48
2022/04/12 12:33:09;;;;;;;1.63;1.40;;;;;;;;;;4992498;28;20411;-50
2022/04/12 12:35:39;;;;;;;3.13;1.43;;;;;;;;;;4992235;28;20455;-49
2022/04/12 12:38:09;;;;;;;2.50;1.50;;;;;;;;;;4992418;28;20423;-52
2022/04/12 12:40:36;;;;;;;5.20;1.70;;;;;;;;;;4992350;28;20745;-48
2022/04/12 12:43:03;;;;;;;2.40;1.43;;;;;;;;;;4992438;28;20400;-47
2022/04/12 12:45:29;;;;;;;2.53;1.30;;;;;;;;;;4992205;28;20432;-48
2022/04/12 12:47:57;;;;;;;4.47;1.50;;;;;;;;;;4992197;28;20418;-47
2022/04/12 12:50:23;;;;;;;2.23;1.30;;;;;;;;;;4990477;28;20847;-48
2022/04/12 12:52:50;;;;;;;2.03;1.40;;;;;;;;;;4992202;28;20503;-48
2022/04/12 12:55:16;;;;;;;1.50;1.40;;;;;;;;;;4991946;28;20510;-48
2022/04/12 12:57:44;;;;;;;1.47;1.37;;;;;;;;;;4992296;28;20903;-49
2022/04/12 13:00:12;;;;;;;3.10;1.57;;;;;;;;;;4991901;28;20420;-50
2022/04/12 13:02:38;;;;;;;4.60;1.60;;;;;;;;;;4991651;28;20416;-50
2022/04/12 13:05:08;;;;;;;2.40;1.40;;;;;;;;;;4991236;28;20440;-48
2022/04/12 13:07:35;;;;;;;2.20;1.40;;;;;;;;;;4991448;28;20478;-48
2022/04/12 13:10:08;;;;;;;6.30;1.67;;;;;;;;;;4990867;28;20455;-48
2022/04/12 13:12:34;;;;;;;1.40;1.30;;;;;;;;;;4994944;28;20423;-48
2022/04/12 13:15:00;;;;;;;1.63;1.50;;;;;;;;;;4991809;28;20499;-48
2022/04/12 13:17:26;;;;;;;2.40;1.30;;;;;;;;;;4996455;28;20937;-50
2022/04/12 13:19:52;;;;;;;2.30;2.10;;;;;;;;;;4995512;28;20412;-52
2022/04/12 13:22:18;;;;;;;2.40;1.53;;;;;;;;;;4992026;28;20828;-47
2022/04/12 13:24:44;;;;;;;1.63;1.40;;;;;;;;;;4991287;28;20467;-47
2022/04/12 13:27:10;;;;;;;2.33;1.60;;;;;;;;;;4991730;28;20424;-47
2022/04/12 13:29:36;;;;;;;3.93;1.50;;;;;;;;;;4991835;28;20427;-48
2022/04/12 13:32:02;;;;;;;2.70;1.60;;;;;;;;;;4990911;28;20511;-48
2022/04/12 13:34:28;;;;;;;5.57;1.63;;;;;;;;;;4990917;28;20482;-48
2022/04/12 13:36:54;;;;;;;1.87;1.40;;;;;;;;;;4993972;28;20506;-48
2022/04/12 13:39:20;;;;;;;2.30;1.50;;;;;;;;;;4994758;28;20979;-49
2022/04/12 13:41:48;;;;;;;5.70;1.37;;;;;;;;;;4994588;28;20412;-49
2022/04/12 13:44:15;;;;;;;4.40;1.67;;;;;;;;;;4994675;28;20419;-52
2022/04/12 13:46:41;;;;;;;2.37;1.67;;;;;;;;;;4995248;28;20438;-50
2022/04/12 13:49:07;;;;;;;3.43;1.50;;;;;;;;;;4995354;28;20411;-51
2022/04/12 13:51:33;;;;;;;1.63;1.53;;;;;;;;;;4995196;28;20431;-52
2022/04/12 13:53:59;;;;;;;1.50;1.40;;;;;;;;;;4994768;28;20420;-53
2022/04/12 13:56:25;;;;;;;2.50;1.47;;;;;;;;;;4994745;28;20436;-50
2022/04/12 13:58:51;;;;;;;2.40;1.20;;;;;;;;;;4995098;28;20910;-48
2022/04/12 14:01:17;;;;;;;2.80;1.63;;;;;;;;;;4994803;28;20420;-48
2022/04/12 14:03:43;;;;;;;2.80;1.50;;;;;;;;;;4994860;28;20412;-50
2022/04/12 14:06:10;;;;;;;3.07;1.60;;;;;;;;;;4994563;28;20509;-48
2022/04/12 14:08:36;;;;;;;4.27;1.83;;;;;;;;;;4994606;28;20423;-51
2022/04/12 14:11:02;;;;;;;5.27;1.60;;;;;;;;;;4994635;28;20959;-48
2022/04/12 14:13:29;;;;;;;1.50;1.10;;;;;;;;;;4994800;28;20535;-52
2022/04/12 14:15:56;;;;;;;3.23;1.70;;;;;;;;;;4994706;28;20459;-51
2022/04/12 14:18:22;;;;;;;1.40;1.23;;;;;;;;;;5002885;28;20415;-49
2022/04/12 14:20:48;;;;;;;5.90;1.97;;;;;;;;;;4994857;28;20775;-48
2022/04/12 14:23:14;;;;;;;4.63;1.53;;;;;;;;;;4994675;28;20495;-48
2022/04/12 14:25:41;;;;;;;3.17;1.67;;;;;;;;;;4994385;28;20468;-48
2022/04/12 14:28:10;;;;;;;1.50;1.07;;;;;;;;;;4994470;28;20420;-48
2022/04/12 14:30:37;;;;;;;4.07;1.40;;;;;;;;;;4994696;28;20412;-48
2022/04/12 14:33:03;;;;;;;1.90;1.50;;;;;;;;;;4994028;28;20493;-49
2022/04/12 14:35:33;;;;;;;2.10;1.37;;;;;;;;;;4994352;28;20851;-49
2022/04/12 14:37:59;;;;;;;2.20;1.27;;;;;;;;;;4994232;28;20432;-51
2022/04/12 14:40:25;;;;;;;1.30;1.20;;;;;;;;;;4994218;28;20423;-50
2022/04/12 14:42:51;;;;;;;1.90;1.70;;;;;;;;;;4994427;28;20868;-51
2022/04/12 14:45:17;;;;;;;6.73;1.77;;;;;;;;;;4991580;28;20436;-51